Time;durP1;ratioP1;P1;durP2;ratioP2;P2;SDS_P1;SDS_P2;PMS_P1;PMS_P2;Temp;Humidity;BMP_temperature;BMP_pressure;BME280_temperature;BME280_humidity;BME280_pressure;Samples;Min_cycle;Max_cycle;Signal;HPM_P1;HPM_P2
2022/08/16 00:00:57;;;;;;;0.10;0.00;;;21.10;99.90;;;;;;4893739;29;20449;-87
2022/08/16 00:03:22;;;;;;;0.10;0.00;;;21.10;99.90;;;;;;4894281;29;20671;-88
2022/08/16 00:05:48;;;;;;;0.10;0.00;;;21.20;99.90;;;;;;4911292;29;20586;-87
2022/08/16 00:08:14;;;;;;;0.10;0.00;;;21.10;99.90;;;;;;4894645;29;20197;-87
2022/08/16 00:10:40;;;;;;;0.10;0.00;;;21.00;99.90;;;;;;4896692;29;20557;-87
2022/08/16 00:13:08;;;;;;;0.10;0.10;;;21.10;99.90;;;;;;4895566;29;20192;-87
2022/08/16 00:15:40;;;;;;;0.10;0.00;;;20.90;99.90;;;;;;4895817;29;20511;-87
2022/08/16 00:18:08;;;;;;;0.10;0.00;;;21.00;99.90;;;;;;4896765;29;20425;-87
2022/08/16 00:20:34;;;;;;;0.10;0.00;;;21.00;99.90;;;;;;4896522;29;20574;-87
2022/08/16 00:23:00;;;;;;;0.10;0.10;;;20.80;99.90;;;;;;4893399;29;20457;-87
2022/08/16 00:25:26;;;;;;;0.10;0.00;;;20.90;99.90;;;;;;4893250;29;20201;-87
2022/08/16 00:27:52;;;;;;;0.10;0.00;;;21.10;99.90;;;;;;4896634;29;20202;-88
2022/08/16 00:30:20;;;;;;;0.10;0.00;;;21.10;99.90;;;;;;4895593;29;20882;-87
2022/08/16 00:32:48;;;;;;;0.10;0.00;;;21.00;99.90;;;;;;4896373;29;20774;-87
2022/08/16 00:35:16;;;;;;;0.10;0.00;;;21.00;99.90;;;;;;4896373;29;20856;-86
2022/08/16 00:37:43;;;;;;;0.10;0.00;;;21.00;99.90;;;;;;4894673;29;20441;-87
2022/08/16 00:40:11;;;;;;;0.10;0.10;;;21.00;99.90;;;;;;4895034;29;20552;-87
2022/08/16 00:42:36;;;;;;;0.10;0.10;;;20.90;99.90;;;;;;4877482;29;20458;-87
2022/08/16 00:45:36;;;;;;;0.10;0.00;;;20.90;99.90;;;;;;4891405;29;20496;-87
2022/08/16 00:48:05;;;;;;;0.10;0.00;;;21.00;99.90;;;;;;4893144;29;20216;-87
2022/08/16 00:50:35;;;;;;;0.10;0.10;;;20.90;99.90;;;;;;4895095;29;20458;-87
2022/08/16 00:53:00;;;;;;;0.10;0.00;;;20.90;99.90;;;;;;4894687;29;20536;-87
2022/08/16 00:55:27;;;;;;;0.10;0.00;;;21.00;99.90;;;;;;4895972;29;20429;-86
2022/08/16 00:57:56;;;;;;;0.10;0.00;;;20.90;99.90;;;;;;4894301;29;20280;-87
2022/08/16 01:00:27;;;;;;;0.10;0.10;;;20.80;99.90;;;;;;4895309;29;20477;-87
2022/08/16 01:02:54;;;;;;;0.10;0.10;;;20.80;99.90;;;;;;4895884;29;21278;-87
2022/08/16 01:05:19;;;;;;;0.10;0.10;;;20.70;99.90;;;;;;4895891;29;20429;-87
2022/08/16 01:07:45;;;;;;;0.10;0.00;;;20.70;99.90;;;;;;4909269;29;20453;-85
2022/08/16 01:10:11;;;;;;;0.10;0.00;;;20.60;99.90;;;;;;4893539;29;20252;-85
2022/08/16 01:12:36;;;;;;;0.10;0.00;;;20.50;99.90;;;;;;4892794;29;20688;-87
2022/08/16 01:15:03;;;;;;;0.10;0.00;;;20.50;99.90;;;;;;4882738;29;20518;-88
2022/08/16 01:17:30;;;;;;;0.10;0.10;;;20.60;99.90;;;;;;4877001;29;20189;-87
2022/08/16 01:20:00;;;;;;;0.10;0.10;;;20.60;99.90;;;;;;4883451;29;20552;-87
2022/08/16 01:22:35;;;;;;;0.10;0.10;;;20.60;99.90;;;;;;4894704;29;20461;-87
2022/08/16 01:25:07;;;;;;;0.10;0.00;;;20.40;99.90;;;;;;4894900;29;20467;-87
2022/08/16 01:27:37;;;;;;;0.10;0.10;;;20.50;99.90;;;;;;4894040;29;20460;-86
2022/08/16 01:30:03;;;;;;;0.10;0.00;;;20.50;99.90;;;;;;4895687;29;20439;-87
2022/08/16 01:32:31;;;;;;;0.10;0.10;;;20.40;99.90;;;;;;4894094;29;20517;-86
2022/08/16 01:34:57;;;;;;;0.10;0.10;;;20.50;99.90;;;;;;4909907;29;20192;-86
2022/08/16 01:37:22;;;;;;;0.10;0.00;;;20.60;99.90;;;;;;4894455;29;20520;-87
2022/08/16 01:39:48;;;;;;;0.10;0.00;;;20.50;99.90;;;;;;4894623;29;21311;-86
2022/08/16 01:42:14;;;;;;;0.10;0.00;;;20.50;99.90;;;;;;4893614;29;20197;-87
2022/08/16 01:44:41;;;;;;;0.10;0.00;;;20.50;99.90;;;;;;4895282;29;20201;-85
2022/08/16 01:47:07;;;;;;;0.10;0.10;;;20.40;99.90;;;;;;4895396;29;20788;-86
2022/08/16 01:49:38;;;;;;;0.10;0.10;;;20.40;99.90;;;;;;4895020;29;20555;-86
2022/08/16 01:52:07;;;;;;;0.10;0.07;;;20.40;99.90;;;;;;4894402;29;20462;-87
2022/08/16 01:54:33;;;;;;;0.10;0.10;;;20.40;99.90;;;;;;4893720;29;20457;-87
2022/08/16 01:57:01;;;;;;;0.10;0.10;;;20.50;99.90;;;;;;4894817;29;20433;-87
2022/08/16 01:59:28;;;;;;;0.10;0.00;;;20.30;99.90;;;;;;4893908;29;20492;-87
2022/08/16 02:01:54;;;;;;;0.10;0.00;;;20.20;99.90;;;;;;4897758;29;20445;-87
2022/08/16 02:04:21;;;;;;;0.10;0.10;;;20.20;99.90;;;;;;4898100;29;20952;-87
2022/08/16 02:06:47;;;;;;;0.10;0.10;;;20.30;99.90;;;;;;4897489;29;20445;-87
2022/08/16 02:09:13;;;;;;;0.10;0.00;;;20.20;99.90;;;;;;4898337;29;20481;-87
2022/08/16 02:11:43;;;;;;;0.10;0.10;;;20.30;99.90;;;;;;4898894;29;20185;-87
2022/08/16 02:14:09;;;;;;;0.10;0.00;;;20.30;99.90;;;;;;4892803;29;20506;-87
2022/08/16 02:16:35;;;;;;;0.10;0.00;;;20.30;99.90;;;;;;4879956;29;20430;-87
2022/08/16 02:19:02;;;;;;;0.10;0.10;;;20.40;99.90;;;;;;4879944;29;20525;-87
2022/08/16 02:21:29;;;;;;;0.10;0.10;;;20.30;99.90;;;;;;4888343;29;20249;-87
2022/08/16 02:23:55;;;;;;;0.10;0.00;;;20.30;99.90;;;;;;4895796;29;20459;-87
2022/08/16 02:26:20;;;;;;;0.10;0.00;;;20.30;99.90;;;;;;4898613;29;20491;-87
2022/08/16 02:28:46;;;;;;;0.10;0.10;;;20.30;99.90;;;;;;4897778;29;20957;-88
2022/08/16 02:31:13;;;;;;;0.10;0.00;;;20.20;99.90;;;;;;4897205;29;20193;-87
2022/08/16 02:33:40;;;;;;;0.10;0.10;;;20.30;99.90;;;;;;4896932;29;20531;-87
2022/08/16 02:36:06;;;;;;;0.10;0.10;;;20.20;99.90;;;;;;4896889;29;20589;-86
2022/08/16 02:38:32;;;;;;;0.10;0.10;;;20.20;99.90;;;;;;4897601;29;20535;-87
2022/08/16 02:41:00;;;;;;;0.10;0.10;;;20.20;99.90;;;;;;4898597;29;20565;-87
2022/08/16 02:43:28;;;;;;;0.10;0.10;;;20.20;99.90;;;;;;4898296;29;20197;-88
2022/08/16 02:45:55;;;;;;;0.10;0.10;;;20.20;99.90;;;;;;4898407;29;20441;-88
2022/08/16 02:48:21;;;;;;;0.10;0.00;;;20.20;99.90;;;;;;4912668;29;20521;-88
2022/08/16 02:50:47;;;;;;;0.10;0.00;;;20.20;99.90;;;;;;4895263;29;20923;-87
2022/08/16 02:53:12;;;;;;;0.10;0.00;;;20.20;99.90;;;;;;4896889;29;20309;-87
2022/08/16 02:55:38;;;;;;;0.10;0.00;;;20.20;99.90;;;;;;4895793;29;20448;-86
2022/08/16 02:58:04;;;;;;;0.10;0.10;;;20.20;99.90;;;;;;4897524;29;20201;-89
2022/08/16 03:00:30;;;;;;;0.10;0.00;;;20.10;99.90;;;;;;4898064;29;20213;-88
2022/08/16 03:02:56;;;;;;;0.10;0.10;;;20.20;99.90;;;;;;4898090;29;20432;-87
2022/08/16 03:05:22;;;;;;;0.10;0.10;;;20.20;99.90;;;;;;4896279;29;20453;-88
2022/08/16 03:07:48;;;;;;;0.10;0.10;;;20.20;99.90;;;;;;4896920;29;20547;-88
2022/08/16 03:10:14;;;;;;;0.10;0.00;;;20.10;99.90;;;;;;4896961;29;20584;-87
2022/08/16 03:12:42;;;;;;;0.10;0.10;;;20.20;99.90;;;;;;4897656;29;20704;-87
2022/08/16 03:15:10;;;;;;;0.10;0.00;;;20.20;99.90;;;;;;4896728;29;20662;-87
2022/08/16 03:17:36;;;;;;;0.10;0.10;;;20.20;99.90;;;;;;4897330;29;20433;-86
2022/08/16 03:20:04;;;;;;;0.10;0.10;;;20.20;99.90;;;;;;4896731;29;20564;-87
2022/08/16 03:22:30;;;;;;;0.10;0.10;;;20.20;99.90;;;;;;4896726;29;20437;-87
2022/08/16 03:24:58;;;;;;;0.10;0.00;;;20.20;99.90;;;;;;4896905;29;20960;-87
2022/08/16 03:27:26;;;;;;;0.10;0.10;;;20.10;99.90;;;;;;4894115;29;20199;-87
2022/08/16 03:29:52;;;;;;;0.10;0.00;;;20.10;99.90;;;;;;4897681;29;20436;-86
2022/08/16 03:32:18;;;;;;;0.10;0.10;;;20.10;99.90;;;;;;4896793;29;20425;-88
2022/08/16 03:34:45;;;;;;;0.10;0.00;;;20.20;99.90;;;;;;4894581;29;20517;-88
2022/08/16 03:37:11;;;;;;;0.10;0.00;;;20.20;99.90;;;;;;4894091;29;20484;-88
2022/08/16 03:39:38;;;;;;;0.10;0.00;;;20.20;99.90;;;;;;4896143;29;20555;-87
2022/08/16 03:42:04;;;;;;;0.10;0.00;;;20.20;99.90;;;;;;4895028;29;20465;-87
2022/08/16 03:44:31;;;;;;;0.10;0.00;;;20.20;99.90;;;;;;4891944;29;20437;-87
2022/08/16 03:46:57;;;;;;;0.10;0.10;;;20.20;99.90;;;;;;4895922;29;20861;-87
2022/08/16 03:49:22;;;;;;;0.10;0.00;;;20.20;99.90;;;;;;4895565;29;20430;-87
2022/08/16 03:51:48;;;;;;;0.10;0.10;;;20.20;99.90;;;;;;4894679;29;20941;-87
2022/08/16 03:54:13;;;;;;;0.10;0.10;;;20.20;99.90;;;;;;4896917;29;20645;-86
2022/08/16 03:56:40;;;;;;;0.10;0.00;;;20.20;99.90;;;;;;4910240;29;20280;-87
2022/08/16 03:59:05;;;;;;;0.10;0.10;;;20.20;99.90;;;;;;4895850;29;20646;-87
2022/08/16 04:01:31;;;;;;;0.10;0.00;;;20.20;99.90;;;;;;4895835;29;20536;-88
2022/08/16 04:03:57;;;;;;;0.10;0.10;;;20.20;99.90;;;;;;4896447;29;20268;-87
2022/08/16 04:06:22;;;;;;;0.10;0.10;;;20.20;99.90;;;;;;4895208;29;20208;-88
2022/08/16 04:08:48;;;;;;;0.10;0.10;;;20.20;99.90;;;;;;4896640;29;20201;-88
2022/08/16 04:11:14;;;;;;;0.10;0.10;;;20.20;99.90;;;;;;4896888;29;20185;-89
2022/08/16 04:13:39;;;;;;;0.10;0.00;;;20.10;99.90;;;;;;4909766;29;20594;-89
2022/08/16 04:16:05;;;;;;;0.10;0.10;;;20.10;99.90;;;;;;4907609;29;20557;-87
2022/08/16 04:18:31;;;;;;;0.10;0.00;;;20.10;99.90;;;;;;4894889;29;20268;-88
2022/08/16 04:20:56;;;;;;;0.10;0.00;;;20.10;99.90;;;;;;4895549;29;20189;-88
2022/08/16 04:23:22;;;;;;;0.10;0.00;;;20.00;99.90;;;;;;4894395;29;20185;-88
2022/08/16 04:25:48;;;;;;;0.10;0.00;;;19.90;99.90;;;;;;4909285;29;20268;-91
2022/08/16 04:28:14;;;;;;;0.10;0.10;;;19.90;99.90;;;;;;4894195;29;20210;-88
2022/08/16 04:30:40;;;;;;;0.10;0.10;;;19.80;99.90;;;;;;4897484;29;20442;-92
2022/08/16 04:33:07;;;;;;;0.10;0.10;;;19.80;99.90;;;;;;4897499;29;20840;-91
2022/08/16 04:35:33;;;;;;;0.10;0.10;;;19.70;99.90;;;;;;4894653;29;20232;-90
2022/08/16 04:37:58;;;;;;;0.10;0.10;;;19.60;99.90;;;;;;4894872;29;20882;-89
2022/08/16 04:40:26;;;;;;;0.10;0.10;;;19.50;99.90;;;;;;4894307;29;20528;-86
2022/08/16 04:42:52;;;;;;;0.10;0.10;;;19.40;99.90;;;;;;4893876;29;20204;-86
2022/08/16 04:45:18;;;;;;;0.10;0.10;;;19.30;99.90;;;;;;4893420;29;20477;-88
2022/08/16 04:47:44;;;;;;;0.10;0.10;;;19.20;99.90;;;;;;4894772;29;20477;-89
2022/08/16 04:50:22;;;;;;;0.10;0.10;;;19.20;99.90;;;;;;4896452;29;20495;-93
2022/08/16 04:52:49;;;;;;;0.10;0.10;;;19.10;99.90;;;;;;4893893;29;20308;-81
2022/08/16 04:55:18;;;;;;;0.10;0.10;;;18.80;99.90;;;;;;4892915;29;20957;-80
2022/08/16 04:57:45;;;;;;;0.10;0.10;;;18.80;99.90;;;;;;4892893;29;20940;-81
2022/08/16 05:00:14;;;;;;;0.10;0.00;;;18.70;99.90;;;;;;4894110;29;20584;-80
2022/08/16 05:02:40;;;;;;;0.10;0.10;;;18.80;99.90;;;;;;4893332;29;20459;-82
2022/08/16 05:05:06;;;;;;;0.10;0.10;;;18.90;99.90;;;;;;4909258;29;20512;-83
2022/08/16 05:07:32;;;;;;;0.10;0.10;;;18.80;99.90;;;;;;4894568;29;20304;-82
2022/08/16 05:09:57;;;;;;;0.10;0.10;;;18.90;99.90;;;;;;4894030;29;20548;-84
2022/08/16 05:12:23;;;;;;;0.10;0.10;;;18.90;99.90;;;;;;4894562;29;20213;-83
2022/08/16 05:14:48;;;;;;;0.10;0.00;;;18.90;99.90;;;;;;4892980;29;20775;-82
2022/08/16 05:17:14;;;;;;;0.10;0.10;;;18.90;99.90;;;;;;4908913;29;20189;-82
2022/08/16 05:19:39;;;;;;;0.10;0.10;;;18.90;99.90;;;;;;4895472;29;20221;-82
2022/08/16 05:22:05;;;;;;;0.10;0.10;;;19.00;99.90;;;;;;4895643;29;20189;-82
2022/08/16 05:24:30;;;;;;;0.10;0.10;;;18.90;99.90;;;;;;4892801;29;20904;-83
2022/08/16 05:26:56;;;;;;;0.10;0.10;;;19.00;99.90;;;;;;4893805;29;20181;-83
2022/08/16 05:29:21;;;;;;;0.10;0.10;;;19.00;99.90;;;;;;4894344;29;20204;-83
2022/08/16 05:31:47;;;;;;;0.10;0.10;;;19.00;99.90;;;;;;4895204;29;20280;-84
2022/08/16 05:34:12;;;;;;;0.10;0.10;;;19.00;99.90;;;;;;4892683;29;20688;-84
2022/08/16 05:36:38;;;;;;;0.10;0.10;;;19.00;99.90;;;;;;4894296;29;20207;-83
2022/08/16 05:39:05;;;;;;;0.10;0.10;;;19.10;99.90;;;;;;4893761;29;20581;-83
2022/08/16 05:41:31;;;;;;;0.10;0.10;;;19.10;99.90;;;;;;4893230;29;20692;-84
2022/08/16 05:43:59;;;;;;;0.10;0.10;;;19.10;99.90;;;;;;4895963;29;20430;-84
2022/08/16 05:46:25;;;;;;;0.10;0.10;;;19.00;99.90;;;;;;4893218;29;20189;-83
2022/08/16 05:48:51;;;;;;;0.10;0.10;;;19.00;99.90;;;;;;4893614;29;20466;-83
2022/08/16 05:51:18;;;;;;;0.10;0.10;;;19.00;99.90;;;;;;4892927;29;20457;-83
2022/08/16 05:53:43;;;;;;;0.10;0.10;;;19.00;99.90;;;;;;4893572;29;20200;-83
2022/08/16 05:56:10;;;;;;;0.10;0.10;;;19.00;99.90;;;;;;4894607;29;20445;-84
2022/08/16 05:58:36;;;;;;;0.10;0.10;;;19.00;99.90;;;;;;4894092;29;20196;-83
2022/08/16 06:01:02;;;;;;;0.10;0.10;;;19.00;99.90;;;;;;4891997;29;20457;-84
2022/08/16 06:03:27;;;;;;;0.10;0.10;;;19.00;99.90;;;;;;4893525;29;20193;-83
2022/08/16 06:05:53;;;;;;;0.10;0.10;;;19.00;99.90;;;;;;4895057;29;20812;-84
2022/08/16 06:08:18;;;;;;;0.10;0.10;;;19.00;99.90;;;;;;4894169;29;20245;-84
2022/08/16 06:10:44;;;;;;;0.10;0.10;;;19.10;99.90;;;;;;4894978;29;20205;-84
2022/08/16 06:13:09;;;;;;;0.10;0.10;;;19.10;99.90;;;;;;4895377;29;20187;-84
2022/08/16 06:15:35;;;;;;;0.10;0.10;;;19.10;99.90;;;;;;4893456;29;20255;-84
2022/08/16 06:18:00;;;;;;;0.10;0.10;;;19.10;99.90;;;;;;4893844;29;20200;-84
2022/08/16 06:20:28;;;;;;;0.10;0.10;;;19.10;99.90;;;;;;4894322;29;20229;-84
2022/08/16 06:22:55;;;;;;;0.10;0.10;;;19.10;99.90;;;;;;4890906;29;20247;-85
2022/08/16 06:25:21;;;;;;;0.10;0.10;;;19.20;99.90;;;;;;4890985;29;20460;-86
2022/08/16 06:27:47;;;;;;;0.10;0.00;;;19.30;99.90;;;;;;4894648;29;20452;-86
2022/08/16 06:30:13;;;;;;;0.10;0.00;;;19.30;99.90;;;;;;4906836;29;22292;-87
2022/08/16 06:32:39;;;;;;;0.10;0.10;;;19.30;99.90;;;;;;4892652;29;20197;-87
2022/08/16 06:35:06;;;;;;;0.10;0.10;;;19.30;99.90;;;;;;4893562;29;20449;-86
2022/08/16 06:37:31;;;;;;;0.10;0.10;;;19.20;99.90;;;;;;4889818;29;20816;-87
2022/08/16 06:39:57;;;;;;;0.10;0.10;;;19.30;99.90;;;;;;4908211;29;20556;-87
2022/08/16 06:42:23;;;;;;;0.10;0.10;;;19.30;99.90;;;;;;4907512;29;20193;-87
2022/08/16 06:44:48;;;;;;;0.10;0.10;;;19.30;99.90;;;;;;4892951;29;20230;-85
2022/08/16 06:47:14;;;;;;;0.10;0.10;;;19.40;99.90;;;;;;4894198;29;20268;-86
2022/08/16 06:49:40;;;;;;;0.10;0.00;;;19.40;99.90;;;;;;4896495;29;20189;-84
2022/08/16 06:52:06;;;;;;;0.10;0.10;;;19.40;99.90;;;;;;4895712;29;20195;-85
2022/08/16 06:54:33;;;;;;;0.10;0.10;;;19.50;99.90;;;;;;4896301;29;20196;-84
2022/08/16 06:56:58;;;;;;;0.10;0.10;;;19.50;99.90;;;;;;4895771;29;20508;-85
2022/08/16 06:59:24;;;;;;;0.10;0.10;;;19.60;99.90;;;;;;4896874;29;20488;-85
2022/08/16 07:01:50;;;;;;;0.10;0.00;;;19.60;99.90;;;;;;4897289;29;20217;-85
2022/08/16 07:04:16;;;;;;;0.10;0.00;;;19.60;99.90;;;;;;4896530;29;20632;-86
2022/08/16 07:06:42;;;;;;;0.10;0.00;;;19.70;99.90;;;;;;4898017;29;20457;-85
2022/08/16 07:09:09;;;;;;;0.10;0.00;;;19.70;99.90;;;;;;4898151;29;20228;-84
2022/08/16 07:11:35;;;;;;;0.10;0.10;;;19.80;99.90;;;;;;4895733;29;20603;-86
2022/08/16 07:14:00;;;;;;;0.10;0.00;;;19.80;99.90;;;;;;4896086;29;20612;-85
2022/08/16 07:16:26;;;;;;;0.10;0.00;;;19.80;99.90;;;;;;4896917;29;20208;-86
2022/08/16 07:18:51;;;;;;;0.10;0.10;;;19.70;99.90;;;;;;4896361;29;20638;-85
2022/08/16 07:21:17;;;;;;;0.10;0.10;;;19.90;99.90;;;;;;4895481;29;20197;-86
2022/08/16 07:23:45;;;;;;;0.10;0.10;;;20.10;99.90;;;;;;4896518;29;20664;-85
2022/08/16 07:26:17;;;;;;;0.10;0.00;;;20.10;99.90;;;;;;4895524;29;20188;-85
2022/08/16 07:28:43;;;;;;;0.10;0.10;;;20.10;99.90;;;;;;4895285;29;20441;-86
2022/08/16 07:31:09;;;;;;;0.10;0.10;;;20.00;99.90;;;;;;4910909;29;20532;-85
2022/08/16 07:33:36;;;;;;;0.10;0.00;;;20.10;99.90;;;;;;4895561;29;20648;-87
2022/08/16 07:36:03;;;;;;;0.10;0.10;;;20.10;99.90;;;;;;4896750;29;20185;-86
2022/08/16 07:38:28;;;;;;;0.10;0.10;;;20.10;99.90;;;;;;4897079;29;20474;-87
2022/08/16 07:40:55;;;;;;;0.10;0.00;;;20.10;99.90;;;;;;4895348;29;20970;-86
2022/08/16 07:43:22;;;;;;;0.10;0.00;;;20.20;99.90;;;;;;4893640;29;20193;-86
2022/08/16 07:45:48;;;;;;;0.10;0.00;;;20.30;99.90;;;;;;4893935;29;21716;-86
2022/08/16 07:48:13;;;;;;;0.10;0.00;;;20.30;99.90;;;;;;4896323;29;20441;-87
2022/08/16 07:50:41;;;;;;;0.10;0.00;;;20.40;99.90;;;;;;4895232;29;20474;-87
2022/08/16 07:53:07;;;;;;;0.10;0.00;;;20.20;99.90;;;;;;4910639;29;20732;-88
2022/08/16 07:55:33;;;;;;;0.10;0.00;;;20.60;99.90;;;;;;4895089;29;20456;-87
2022/08/16 07:57:58;;;;;;;0.10;0.00;;;20.50;99.90;;;;;;4895664;29;20437;-86
2022/08/16 08:00:24;;;;;;;0.10;0.00;;;20.50;99.90;;;;;;4895540;29;20228;-88
2022/08/16 08:02:50;;;;;;;0.10;0.00;;;20.60;99.90;;;;;;4895235;29;20193;-87
2022/08/16 08:05:15;;;;;;;0.10;0.00;;;20.60;99.90;;;;;;4896225;29;20555;-87
2022/08/16 08:07:41;;;;;;;0.10;0.00;;;20.60;99.90;;;;;;4896711;29;20201;-88
2022/08/16 08:10:08;;;;;;;0.10;0.00;;;20.80;99.90;;;;;;4896929;29;20291;-87
2022/08/16 08:12:34;;;;;;;0.10;0.00;;;20.90;99.90;;;;;;4894757;29;20219;-88
2022/08/16 08:15:00;;;;;;;0.10;0.10;;;21.00;99.90;;;;;;4895121;29;21011;-88
2022/08/16 08:17:28;;;;;;;0.10;0.00;;;20.80;99.90;;;;;;4896220;29;20440;-89
2022/08/16 08:19:53;;;;;;;0.10;0.00;;;20.90;99.90;;;;;;4895793;29;20572;-85
2022/08/16 08:22:21;;;;;;;0.10;0.00;;;20.90;99.90;;;;;;4893134;29;20557;-87
2022/08/16 08:24:48;;;;;;;0.10;0.00;;;21.10;99.90;;;;;;4893150;29;20218;-86
2022/08/16 08:27:13;;;;;;;0.10;0.00;;;21.20;99.90;;;;;;4893149;29;20541;-87
2022/08/16 08:29:39;;;;;;;0.10;0.00;;;21.50;99.90;;;;;;4893042;29;20474;-86
2022/08/16 08:32:06;;;;;;;0.10;0.00;;;21.50;99.90;;;;;;4894445;29;20204;-87
2022/08/16 08:34:32;;;;;;;0.10;0.00;;;21.70;99.90;;;;;;4896128;29;20460;-89
2022/08/16 08:36:58;;;;;;;0.10;0.00;;;22.00;99.90;;;;;;4896281;29;20444;-89
2022/08/16 08:39:24;;;;;;;0.10;0.00;;;22.10;99.90;;;;;;4896435;29;20217;-91
2022/08/16 08:41:51;;;;;;;0.10;0.00;;;22.00;99.90;;;;;;4894333;29;20450;-91
2022/08/16 08:44:17;;;;;;;0.10;0.00;;;21.90;99.90;;;;;;4894993;29;20445;-91
2022/08/16 08:46:42;;;;;;;0.10;0.00;;;22.00;99.90;;;;;;4893718;29;20441;-90
2022/08/16 08:49:08;;;;;;;0.10;0.00;;;22.10;99.90;;;;;;4894755;29;20457;-91
2022/08/16 08:51:35;;;;;;;0.10;0.00;;;22.30;99.90;;;;;;4887748;29;20204;-91
2022/08/16 08:54:02;;;;;;;0.10;0.00;;;22.70;99.90;;;;;;4891400;29;20212;-92
2022/08/16 08:56:31;;;;;;;0.10;0.00;;;22.90;99.90;;;;;;4895380;29;20535;-90
2022/08/16 08:58:56;;;;;;;0.10;0.00;;;22.80;99.90;;;;;;4895532;29;20464;-90
2022/08/16 09:01:27;;;;;;;0.10;0.00;;;23.20;99.90;;;;;;4894934;29;20469;-90
2022/08/16 09:03:53;;;;;;;0.10;0.00;;;23.30;99.90;;;;;;4896379;29;20189;-90
2022/08/16 09:06:19;;;;;;;0.10;0.00;;;23.60;99.90;;;;;;4896471;29;20437;-89
2022/08/16 09:08:44;;;;;;;0.10;0.00;;;23.70;99.90;;;;;;4895628;29;20193;-89
2022/08/16 09:11:10;;;;;;;0.10;0.00;;;23.40;99.90;;;;;;4895228;29;20730;-89
2022/08/16 09:13:36;;;;;;;0.10;0.00;;;23.10;99.90;;;;;;4896422;29;20225;-91
2022/08/16 09:16:02;;;;;;;0.10;0.00;;;23.10;99.90;;;;;;4895691;29;20526;-88
2022/08/16 09:18:29;;;;;;;0.10;0.00;;;22.90;99.90;;;;;;4894347;29;20189;-88
2022/08/16 09:20:55;;;;;;;0.10;0.00;;;22.90;99.90;;;;;;4896196;29;20492;-91
2022/08/16 09:23:21;;;;;;;0.10;0.00;;;23.20;99.90;;;;;;4894876;29;20606;-91
2022/08/16 09:25:47;;;;;;;0.10;0.00;;;23.30;99.90;;;;;;4893464;29;20287;-88
2022/08/16 09:28:14;;;;;;;0.10;0.00;;;23.20;99.90;;;;;;4893438;29;20645;-89
2022/08/16 09:30:40;;;;;;;0.10;0.00;;;23.20;99.90;;;;;;4894870;29;20556;-89
2022/08/16 09:33:06;;;;;;;0.10;0.00;;;23.20;99.90;;;;;;4892545;29;20445;-89
2022/08/16 09:35:32;;;;;;;0.10;0.00;;;23.30;99.90;;;;;;4892876;29;20813;-89
2022/08/16 09:37:58;;;;;;;0.10;0.00;;;23.40;99.90;;;;;;4892552;29;20197;-90
2022/08/16 09:40:24;;;;;;;0.10;0.00;;;23.90;99.90;;;;;;4891620;29;20492;-88
2022/08/16 09:42:52;;;;;;;0.10;0.00;;;24.40;99.90;;;;;;4893204;29;20684;-89
2022/08/16 09:45:20;;;;;;;0.10;0.00;;;24.60;99.90;;;;;;4891758;29;20437;-89
2022/08/16 09:47:46;;;;;;;0.10;0.00;;;25.00;99.90;;;;;;4892221;29;20453;-86
2022/08/16 09:50:13;;;;;;;0.10;0.00;;;25.20;99.90;;;;;;4891659;29;20468;-86
2022/08/16 09:52:39;;;;;;;0.10;0.00;;;25.50;99.90;;;;;;4890053;29;20953;-87
2022/08/16 09:55:08;;;;;;;0.10;0.00;;;25.40;99.90;;;;;;4890548;29;20841;-87
2022/08/16 09:57:34;;;;;;;0.10;0.00;;;25.50;99.90;;;;;;4906353;29;21267;-87
2022/08/16 10:00:00;;;;;;;0.10;0.00;;;25.90;99.90;;;;;;4890202;29;20479;-86
2022/08/16 10:02:27;;;;;;;0.10;0.00;;;26.60;99.90;;;;;;4890872;29;20200;-86
2022/08/16 10:04:54;;;;;;;0.10;0.00;;;26.60;99.90;;;;;;4891894;29;20208;-86
2022/08/16 10:07:19;;;;;;;0.10;0.00;;;26.60;99.90;;;;;;4890877;29;20583;-86
2022/08/16 10:09:45;;;;;;;0.10;0.00;;;27.00;99.90;;;;;;4892348;29;20489;-86
2022/08/16 10:14:55;;;;;;;0.10;0.00;;;27.30;99.90;;;;;;4886504;29;20835;-87
2022/08/16 10:17:21;;;;;;;0.10;0.00;;;27.40;99.90;;;;;;4892421;29;20469;-87
2022/08/16 10:19:46;;;;;;;0.10;0.00;;;27.30;99.90;;;;;;4881634;29;20209;-86
2022/08/16 10:22:13;;;;;;;0.10;0.00;;;28.10;99.90;;;;;;4889428;29;20204;-86
2022/08/16 10:24:39;;;;;;;0.10;0.00;;;28.50;99.90;;;;;;4894270;29;20811;-86
2022/08/16 10:27:05;;;;;;;0.10;0.00;;;28.50;99.90;;;;;;4895797;29;20439;-86
2022/08/16 10:29:31;;;;;;;0.10;0.00;;;28.20;99.90;;;;;;4894249;29;20536;-86
2022/08/16 10:31:56;;;;;;;0.10;0.00;;;27.60;99.90;;;;;;4894269;29;20441;-85
2022/08/16 10:34:23;;;;;;;0.10;0.00;;;27.30;99.90;;;;;;4893337;29;20189;-86
2022/08/16 10:36:49;;;;;;;0.10;0.00;;;26.80;99.90;;;;;;4892905;29;20192;-84
2022/08/16 10:39:14;;;;;;;0.10;0.00;;;26.90;99.90;;;;;;4891496;29;20491;-85
2022/08/16 10:41:40;;;;;;;0.10;0.00;;;27.70;99.90;;;;;;4896168;29;20189;-85
2022/08/16 10:44:05;;;;;;;0.10;0.00;;;28.20;99.90;;;;;;4894672;29;20192;-85
2022/08/16 10:46:33;;;;;;;0.10;0.00;;;28.20;99.90;;;;;;4914009;29;20608;-86
2022/08/16 10:48:58;;;;;;;0.10;0.00;;;28.40;99.90;;;;;;4895154;29;20249;-86
2022/08/16 10:51:24;;;;;;;0.10;0.00;;;28.10;99.90;;;;;;4890886;29;20464;-85
2022/08/16 10:53:50;;;;;;;0.10;0.00;;;28.30;99.90;;;;;;4889460;29;20826;-85
2022/08/16 10:56:16;;;;;;;0.10;0.00;;;28.80;99.90;;;;;;4891979;29;20193;-85
2022/08/16 10:58:41;;;;;;;0.10;0.00;;;29.20;99.90;;;;;;4895685;29;20272;-86
2022/08/16 11:01:09;;;;;;;0.10;0.00;;;29.60;99.90;;;;;;4909172;29;20591;-86
2022/08/16 11:03:35;;;;;;;0.10;0.00;;;29.80;99.90;;;;;;4892971;29;20193;-85
2022/08/16 11:06:01;;;;;;;0.10;0.00;;;29.80;99.90;;;;;;4893137;29;20457;-84
2022/08/16 11:08:27;;;;;;;0.10;0.00;;;30.30;99.90;;;;;;4893906;29;20437;-86
2022/08/16 11:10:53;;;;;;;0.10;0.00;;;30.20;99.90;;;;;;4895224;29;21047;-84
2022/08/16 11:13:22;;;;;;;0.10;0.00;;;30.50;99.90;;;;;;4895527;29;20192;-85
2022/08/16 11:15:47;;;;;;;0.10;0.00;;;30.80;99.90;;;;;;4893744;29;20199;-85
2022/08/16 11:18:13;;;;;;;0.10;0.00;;;30.80;99.90;;;;;;4894826;29;20936;-84
2022/08/16 11:20:41;;;;;;;0.10;0.00;;;31.10;99.90;;;;;;4893042;29;20240;-85
2022/08/16 11:23:07;;;;;;;0.10;0.00;;;30.70;99.90;;;;;;4894995;29;20218;-85
2022/08/16 11:25:33;;;;;;;0.10;0.00;;;30.60;99.90;;;;;;4909008;29;21009;-85
2022/08/16 11:28:00;;;;;;;0.10;0.00;;;29.60;99.90;;;;;;4893314;29;20192;-85
2022/08/16 11:30:27;;;;;;;0.10;0.00;;;28.80;99.90;;;;;;4894025;29;20450;-84
2022/08/16 11:32:52;;;;;;;0.10;0.00;;;29.40;99.90;;;;;;4894419;29;20437;-85
2022/08/16 11:35:22;;;;;;;0.10;0.00;;;30.40;99.90;;;;;;4894206;29;20517;-86
2022/08/16 11:37:59;;;;;;;0.10;0.00;;;30.70;99.90;;;;;;4895222;29;20193;-86
2022/08/16 11:40:28;;;;;;;0.10;0.00;;;31.10;99.90;;;;;;4895299;29;20572;-86
2022/08/16 11:42:54;;;;;;;0.10;0.00;;;30.80;99.90;;;;;;4885727;29;20473;-85
2022/08/16 11:45:19;;;;;;;0.10;0.00;;;31.30;99.90;;;;;;4894414;29;20433;-86
2022/08/16 11:47:46;;;;;;;0.10;0.00;;;31.70;99.90;;;;;;4893351;29;20201;-83
2022/08/16 11:50:11;;;;;;;0.10;0.00;;;32.00;99.90;;;;;;4892627;29;20532;-84
2022/08/16 11:52:38;;;;;;;0.10;0.00;;;31.90;99.90;;;;;;4892380;29;20589;-83
2022/08/16 11:55:06;;;;;;;0.10;0.00;;;31.00;99.90;;;;;;4891859;29;21019;-84
2022/08/16 11:57:32;;;;;;;0.10;0.00;;;30.40;99.90;;;;;;4893254;29;20449;-84
2022/08/16 11:59:58;;;;;;;0.10;0.00;;;30.90;99.90;;;;;;4892059;29;20856;-85
2022/08/16 12:02:24;;;;;;;0.10;0.00;;;31.40;99.90;;;;;;4891318;29;20455;-84
2022/08/16 12:04:49;;;;;;;0.10;0.00;;;32.00;99.90;;;;;;4892105;29;20888;-85
2022/08/16 12:07:15;;;;;;;0.10;0.00;;;31.40;99.90;;;;;;4893108;29;20449;-87
2022/08/16 12:09:41;;;;;;;0.10;0.00;;;31.10;99.90;;;;;;4894829;29;20185;-84
2022/08/16 12:12:07;;;;;;;0.10;0.00;;;31.50;99.90;;;;;;4891794;29;20640;-83
2022/08/16 12:14:34;;;;;;;0.10;0.00;;;32.20;99.90;;;;;;4894072;29;20256;-83
2022/08/16 12:17:03;;;;;;;0.10;0.00;;;32.60;99.90;;;;;;4893767;29;20485;-82
2022/08/16 12:19:29;;;;;;;0.10;0.00;;;31.80;99.90;;;;;;4892646;29;20484;-82
2022/08/16 12:21:54;;;;;;;0.10;0.00;;;32.20;99.90;;;;;;4894763;29;21002;-82
2022/08/16 12:24:21;;;;;;;0.10;0.00;;;32.30;99.90;;;;;;4891966;29;20556;-82
2022/08/16 12:26:47;;;;;;;0.10;0.00;;;31.80;99.90;;;;;;4893117;29;20189;-85
2022/08/16 12:29:13;;;;;;;0.10;0.00;;;30.80;99.90;;;;;;4892241;29;20942;-84
2022/08/16 12:31:39;;;;;;;0.10;0.00;;;29.80;99.90;;;;;;4892243;29;20445;-84
2022/08/16 12:34:06;;;;;;;0.10;0.00;;;30.30;99.90;;;;;;4894056;29;20445;-83
2022/08/16 12:36:34;;;;;;;0.10;0.00;;;30.50;99.90;;;;;;4893204;29;20248;-84
2022/08/16 12:39:00;;;;;;;0.10;0.00;;;30.20;99.90;;;;;;4892446;29;20450;-84
2022/08/16 12:41:25;;;;;;;0.10;0.00;;;30.80;99.90;;;;;;4892259;29;20513;-85
2022/08/16 12:43:52;;;;;;;0.10;0.00;;;31.20;99.90;;;;;;4891315;29;20444;-86
2022/08/16 12:46:18;;;;;;;0.10;0.00;;;30.70;99.90;;;;;;4893072;29;20204;-86